Time;durP1;ratioP1;P1;durP2;ratioP2;P2;SDS_P1;SDS_P2;PMS_P1;PMS_P2;Temp;Humidity;BMP_temperature;BMP_pressure;BME280_temperature;BME280_humidity;BME280_pressure;Samples;Min_cycle;Max_cycle;Signal;HPM_P1;HPM_P2
2020/12/17 00:00:33;;;;;;;27.55;4.93;;;;;;;;;;5066075;28;20034;-45
2020/12/17 00:03:01;;;;;;;37.40;4.97;;;;;;;;;;5060571;28;20078;-48
2020/12/17 00:05:28;;;;;;;34.33;5.43;;;;;;;;;;5058387;28;20112;-44
2020/12/17 00:07:55;;;;;;;29.42;4.28;;;;;;;;;;5061397;28;20024;-44
2020/12/17 00:10:22;;;;;;;22.95;3.15;;;;;;;;;;5046711;28;20031;-45
2020/12/17 00:12:49;;;;;;;23.23;4.05;;;;;;;;;;5063658;28;20036;-45
2020/12/17 00:15:17;;;;;;;27.40;3.38;;;;;;;;;;5061669;28;20051;-47
2020/12/17 00:17:45;;;;;;;22.48;3.10;;;;;;;;;;5042115;28;20054;-44
2020/12/17 00:20:13;;;;;;;28.05;4.95;;;;;;;;;;5060313;28;20019;-45
2020/12/17 00:22:40;;;;;;;30.95;4.10;;;;;;;;;;5063070;28;20364;-44
2020/12/17 00:25:08;;;;;;;23.23;4.10;;;;;;;;;;5058760;28;20032;-46
2020/12/17 00:27:36;;;;;;;29.77;3.78;;;;;;;;;;5050245;28;20032;-45
2020/12/17 00:30:04;;;;;;;56.88;6.40;;;;;;;;;;5056003;28;20492;-47
2020/12/17 00:32:31;;;;;;;36.72;5.32;;;;;;;;;;5058341;28;20025;-44
2020/12/17 00:34:58;;;;;;;43.72;5.40;;;;;;;;;;5059433;28;20047;-45
2020/12/17 00:37:29;;;;;;;38.83;5.05;;;;;;;;;;5060952;28;20064;-45
2020/12/17 00:39:56;;;;;;;54.28;5.90;;;;;;;;;;5060830;28;20025;-47
2020/12/17 00:42:23;;;;;;;35.17;5.50;;;;;;;;;;5064868;28;20090;-46
2020/12/17 00:44:50;;;;;;;32.17;4.82;;;;;;;;;;5064315;28;20048;-44
2020/12/17 00:47:17;;;;;;;43.58;4.25;;;;;;;;;;5058923;28;20044;-44
2020/12/17 00:49:45;;;;;;;39.88;5.00;;;;;;;;;;5051041;28;20476;-46
2020/12/17 00:52:12;;;;;;;48.75;6.00;;;;;;;;;;5064479;28;20020;-44
2020/12/17 00:54:42;;;;;;;43.17;6.00;;;;;;;;;;5057112;28;20029;-47
2020/12/17 00:57:08;;;;;;;45.53;5.38;;;;;;;;;;5040491;28;20028;-46
2020/12/17 00:59:35;;;;;;;55.22;6.13;;;;;;;;;;5054821;28;20025;-43
2020/12/17 01:02:02;;;;;;;14.35;3.35;;;;;;;;;;5050227;28;20020;-45
2020/12/17 01:04:29;;;;;;;28.45;3.72;;;;;;;;;;5062316;28;20028;-45
2020/12/17 01:06:56;;;;;;;24.73;3.40;;;;;;;;;;5065505;28;20021;-45
2020/12/17 01:09:23;;;;;;;23.80;3.63;;;;;;;;;;5065903;28;20341;-43
2020/12/17 01:11:50;;;;;;;30.63;4.57;;;;;;;;;;5069385;28;20058;-45
2020/12/17 01:14:17;;;;;;;31.77;4.07;;;;;;;;;;5061196;28;20033;-44
2020/12/17 01:16:48;;;;;;;20.25;2.75;;;;;;;;;;5065892;28;20565;-44
2020/12/17 01:19:15;;;;;;;21.48;3.25;;;;;;;;;;5066463;28;20020;-43
2020/12/17 01:21:42;;;;;;;26.02;3.50;;;;;;;;;;5066631;28;20033;-44
2020/12/17 01:24:10;;;;;;;18.65;3.40;;;;;;;;;;5049998;28;20021;-45
2020/12/17 01:26:37;;;;;;;13.50;2.85;;;;;;;;;;5068043;28;20025;-44
2020/12/17 01:29:03;;;;;;;18.23;2.97;;;;;;;;;;5063752;28;20029;-44
2020/12/17 01:31:30;;;;;;;21.27;3.40;;;;;;;;;;5069175;28;20031;-46
2020/12/17 01:33:57;;;;;;;18.73;4.45;;;;;;;;;;5062271;28;20544;-44
2020/12/17 01:36:24;;;;;;;18.02;3.95;;;;;;;;;;5064164;28;20033;-45
2020/12/17 01:38:51;;;;;;;19.55;4.47;;;;;;;;;;5062252;28;20082;-45
2020/12/17 01:41:18;;;;;;;24.98;4.55;;;;;;;;;;5069423;28;20503;-45
2020/12/17 01:43:46;;;;;;;32.60;5.70;;;;;;;;;;5068550;28;20032;-44
2020/12/17 01:46:15;;;;;;;24.63;6.60;;;;;;;;;;5067298;28;20024;-44
2020/12/17 01:48:43;;;;;;;45.67;7.13;;;;;;;;;;5069597;28;20017;-44
2020/12/17 01:51:10;;;;;;;21.15;4.45;;;;;;;;;;5067961;28;20028;-44
2020/12/17 01:53:39;;;;;;;23.23;5.40;;;;;;;;;;5067792;28;20117;-46
2020/12/17 01:56:09;;;;;;;24.50;4.22;;;;;;;;;;5047819;28;20082;-44
2020/12/17 01:58:41;;;;;;;18.20;3.60;;;;;;;;;;5069085;28;20012;-48
2020/12/17 02:01:08;;;;;;;13.20;3.67;;;;;;;;;;5069266;28;20028;-45
2020/12/17 02:03:35;;;;;;;16.52;3.72;;;;;;;;;;5068599;28;20020;-45
2020/12/17 02:06:02;;;;;;;16.83;3.92;;;;;;;;;;5066289;28;20395;-45
2020/12/17 02:08:35;;;;;;;17.13;3.90;;;;;;;;;;5068838;28;20504;-44
2020/12/17 02:11:03;;;;;;;20.58;3.63;;;;;;;;;;5062697;28;20037;-45
2020/12/17 02:13:33;;;;;;;23.33;5.20;;;;;;;;;;5048980;28;20013;-47
2020/12/17 02:16:04;;;;;;;23.70;4.68;;;;;;;;;;5064367;28;20043;-48
2020/12/17 02:18:31;;;;;;;28.27;5.20;;;;;;;;;;5041916;28;20024;-45
2020/12/17 02:20:58;;;;;;;40.15;5.72;;;;;;;;;;5064937;28;20035;-45
2020/12/17 02:23:26;;;;;;;47.15;5.00;;;;;;;;;;5063045;28;20553;-44
2020/12/17 02:25:53;;;;;;;21.92;4.45;;;;;;;;;;5064459;28;20033;-44
2020/12/17 02:28:21;;;;;;;27.15;4.80;;;;;;;;;;5063468;28;20036;-44
2020/12/17 02:30:49;;;;;;;38.55;4.70;;;;;;;;;;5063884;28;20057;-44
2020/12/17 02:33:16;;;;;;;25.13;4.70;;;;;;;;;;5054302;28;20025;-45
2020/12/17 02:35:44;;;;;;;32.45;4.82;;;;;;;;;;5060422;28;20033;-45
2020/12/17 02:38:11;;;;;;;22.95;4.05;;;;;;;;;;5058566;28;20021;-45
2020/12/17 02:40:38;;;;;;;26.70;3.88;;;;;;;;;;5056173;28;20159;-47
2020/12/17 02:43:05;;;;;;;25.55;4.20;;;;;;;;;;5050331;28;20017;-49
2020/12/17 02:45:32;;;;;;;14.73;2.58;;;;;;;;;;5053456;28;20552;-45
2020/12/17 02:47:59;;;;;;;27.63;2.80;;;;;;;;;;5066216;28;20017;-46
2020/12/17 02:50:26;;;;;;;17.63;3.00;;;;;;;;;;5071990;28;20464;-46
2020/12/17 02:52:53;;;;;;;14.02;2.40;;;;;;;;;;5066166;28;20080;-48
2020/12/17 02:55:20;;;;;;;9.32;2.50;;;;;;;;;;5061603;28;20032;-46
2020/12/17 02:57:47;;;;;;;12.02;2.53;;;;;;;;;;5064909;28;20028;-44
2020/12/17 03:00:14;;;;;;;20.20;3.40;;;;;;;;;;5054854;28;20028;-47
2020/12/17 03:02:41;;;;;;;10.63;2.28;;;;;;;;;;5062123;28;20049;-44
2020/12/17 03:05:08;;;;;;;12.52;2.55;;;;;;;;;;5061029;28;20481;-50
2020/12/17 03:07:35;;;;;;;10.73;2.83;;;;;;;;;;5060431;28;20053;-48
2020/12/17 03:10:02;;;;;;;17.48;2.45;;;;;;;;;;5059481;28;20033;-47
2020/12/17 03:12:29;;;;;;;19.90;3.15;;;;;;;;;;5057360;28;20104;-47
2020/12/17 03:14:56;;;;;;;28.83;2.83;;;;;;;;;;5052616;28;20509;-45
2020/12/17 03:17:23;;;;;;;19.60;2.40;;;;;;;;;;5049634;28;20484;-47
2020/12/17 03:19:50;;;;;;;22.02;2.67;;;;;;;;;;5051861;28;20013;-50
2020/12/17 03:22:17;;;;;;;28.83;2.92;;;;;;;;;;5051203;28;20029;-50
2020/12/17 03:24:44;;;;;;;23.17;3.10;;;;;;;;;;5051703;28;20572;-47
2020/12/17 03:27:11;;;;;;;16.48;1.88;;;;;;;;;;5050212;28;20093;-46
2020/12/17 03:29:38;;;;;;;15.48;2.00;;;;;;;;;;5051464;28;20029;-47
2020/12/17 03:32:05;;;;;;;15.68;1.88;;;;;;;;;;5048234;28;20476;-46
2020/12/17 03:34:32;;;;;;;12.15;1.80;;;;;;;;;;5070971;28;20047;-48
2020/12/17 03:36:59;;;;;;;19.25;2.33;;;;;;;;;;5070688;28;20031;-48
2020/12/17 03:39:26;;;;;;;37.25;2.58;;;;;;;;;;5071291;28;20013;-47
2020/12/17 03:41:53;;;;;;;18.13;2.45;;;;;;;;;;5071345;28;20507;-47
2020/12/17 03:44:20;;;;;;;30.88;2.40;;;;;;;;;;5071061;28;20111;-46
2020/12/17 03:46:47;;;;;;;22.08;2.22;;;;;;;;;;5071128;28;20039;-48
2020/12/17 03:49:14;;;;;;;12.98;1.98;;;;;;;;;;5070533;28;20022;-46
2020/12/17 03:51:41;;;;;;;20.50;2.60;;;;;;;;;;5070944;28;20175;-49
2020/12/17 03:54:08;;;;;;;10.68;1.33;;;;;;;;;;5070971;28;20379;-48
2020/12/17 03:56:35;;;;;;;15.55;1.85;;;;;;;;;;5070555;28;20521;-46
2020/12/17 03:59:02;;;;;;;13.10;2.15;;;;;;;;;;5071030;28;20368;-46
2020/12/17 04:01:29;;;;;;;14.35;1.95;;;;;;;;;;5070908;28;20173;-47
2020/12/17 04:03:56;;;;;;;13.05;1.65;;;;;;;;;;5063096;28;20021;-48
2020/12/17 04:06:23;;;;;;;17.85;2.53;;;;;;;;;;5049848;28;20514;-48
2020/12/17 04:08:50;;;;;;;24.92;1.85;;;;;;;;;;5050986;28;20480;-46
2020/12/17 04:11:17;;;;;;;18.17;1.45;;;;;;;;;;5050285;28;20400;-50
2020/12/17 04:13:44;;;;;;;24.48;1.83;;;;;;;;;;5050817;28;20430;-46
2020/12/17 04:16:11;;;;;;;25.15;2.28;;;;;;;;;;5050566;28;20470;-46
2020/12/17 04:18:38;;;;;;;21.13;2.00;;;;;;;;;;5050395;28;20025;-47
2020/12/17 04:21:05;;;;;;;31.60;2.70;;;;;;;;;;5050191;28;20476;-47
2020/12/17 04:23:32;;;;;;;13.68;2.25;;;;;;;;;;5051107;28;20092;-46
2020/12/17 04:25:59;;;;;;;28.45;2.03;;;;;;;;;;5050790;28;20016;-45
2020/12/17 04:28:27;;;;;;;16.00;1.65;;;;;;;;;;5050256;28;20055;-46
2020/12/17 04:30:57;;;;;;;18.00;1.65;;;;;;;;;;5050309;28;20066;-45
2020/12/17 04:33:24;;;;;;;13.63;1.13;;;;;;;;;;5050933;28;20013;-49
2020/12/17 04:35:51;;;;;;;22.45;1.63;;;;;;;;;;5050454;28;20051;-50
2020/12/17 04:38:18;;;;;;;19.15;2.85;;;;;;;;;;5055960;28;20484;-45
2020/12/17 04:40:45;;;;;;;16.42;2.33;;;;;;;;;;5056942;28;20036;-45
2020/12/17 04:43:12;;;;;;;20.33;2.25;;;;;;;;;;5057524;28;20025;-45
2020/12/17 04:45:40;;;;;;;11.40;1.75;;;;;;;;;;5057276;28;20055;-46
2020/12/17 04:48:08;;;;;;;21.75;2.20;;;;;;;;;;5056757;28;20473;-47
2020/12/17 04:50:35;;;;;;;9.52;1.40;;;;;;;;;;5076776;28;20047;-45
2020/12/17 04:53:04;;;;;;;13.60;1.85;;;;;;;;;;5076870;28;20167;-45
2020/12/17 04:55:31;;;;;;;7.95;1.50;;;;;;;;;;5077333;28;20372;-46
2020/12/17 04:58:00;;;;;;;13.32;1.63;;;;;;;;;;5075878;28;20020;-46
2020/12/17 05:00:27;;;;;;;13.63;1.77;;;;;;;;;;5077114;28;20040;-45
2020/12/17 05:02:57;;;;;;;11.13;1.30;;;;;;;;;;5076573;28;20036;-46
2020/12/17 05:05:25;;;;;;;13.30;1.77;;;;;;;;;;5077508;28;20460;-45
2020/12/17 05:07:52;;;;;;;11.40;1.55;;;;;;;;;;5076579;28;20491;-46
2020/12/17 05:10:19;;;;;;;11.23;1.83;;;;;;;;;;5076633;28;20071;-45
2020/12/17 05:12:46;;;;;;;11.50;1.65;;;;;;;;;;5076623;28;20063;-46
2020/12/17 05:15:13;;;;;;;9.75;1.25;;;;;;;;;;5077019;28;20515;-46
2020/12/17 05:17:47;;;;;;;11.68;1.77;;;;;;;;;;5075788;28;20082;-45
2020/12/17 05:20:16;;;;;;;10.20;1.63;;;;;;;;;;5077392;28;20024;-46
2020/12/17 05:22:47;;;;;;;10.98;1.55;;;;;;;;;;5076324;28;20388;-46
2020/12/17 05:25:16;;;;;;;12.23;1.13;;;;;;;;;;5077275;28;20396;-46
2020/12/17 05:27:43;;;;;;;7.35;1.15;;;;;;;;;;5075955;28;20513;-47
2020/12/17 05:30:10;;;;;;;16.02;2.08;;;;;;;;;;5076998;28;20025;-46
2020/12/17 05:32:41;;;;;;;15.35;2.45;;;;;;;;;;5076993;28;20095;-47
2020/12/17 05:35:08;;;;;;;10.88;1.38;;;;;;;;;;5076638;28;20036;-48
2020/12/17 05:37:37;;;;;;;8.00;1.30;;;;;;;;;;5076980;28;20622;-47
2020/12/17 05:40:04;;;;;;;9.88;1.58;;;;;;;;;;5075992;28;20028;-46
2020/12/17 05:42:31;;;;;;;6.85;1.23;;;;;;;;;;5076356;28;20059;-48
2020/12/17 05:44:58;;;;;;;8.25;1.10;;;;;;;;;;5076632;28;20383;-46
2020/12/17 05:47:25;;;;;;;8.68;1.50;;;;;;;;;;5076709;28;20052;-47
2020/12/17 05:49:52;;;;;;;8.82;1.00;;;;;;;;;;5072171;28;20394;-45
2020/12/17 05:52:20;;;;;;;11.05;1.80;;;;;;;;;;5073929;28;20016;-49
2020/12/17 05:54:53;;;;;;;10.02;1.27;;;;;;;;;;5072953;28;20127;-47
2020/12/17 05:57:20;;;;;;;9.43;1.20;;;;;;;;;;5073423;28;20106;-47
2020/12/17 05:59:57;;;;;;;16.58;1.42;;;;;;;;;;5072337;28;20036;-49
2020/12/17 06:02:29;;;;;;;8.35;1.05;;;;;;;;;;5073529;28;20017;-50
2020/12/17 06:05:08;;;;;;;9.27;1.33;;;;;;;;;;5072819;28;20414;-48
2020/12/17 06:07:55;;;;;;;12.73;1.25;;;;;;;;;;5055441;28;20028;-48
2020/12/17 06:10:26;;;;;;;12.00;1.77;;;;;;;;;;5072372;28;20021;-46
2020/12/17 06:12:54;;;;;;;9.30;1.75;;;;;;;;;;5073289;28;20033;-46
2020/12/17 06:15:24;;;;;;;8.82;1.25;;;;;;;;;;5072382;28;20055;-52
2020/12/17 06:17:55;;;;;;;8.57;0.80;;;;;;;;;;5073394;28;20085;-48
2020/12/17 06:20:23;;;;;;;10.25;1.20;;;;;;;;;;5071421;28;20020;-47
2020/12/17 06:22:51;;;;;;;14.23;1.33;;;;;;;;;;5072608;28;20387;-49
2020/12/17 06:25:19;;;;;;;7.90;1.27;;;;;;;;;;5072818;28;20024;-50
2020/12/17 06:27:47;;;;;;;9.65;1.15;;;;;;;;;;5073019;28;20012;-47
2020/12/17 06:30:16;;;;;;;8.88;1.15;;;;;;;;;;5072089;28;20021;-48
2020/12/17 06:32:43;;;;;;;9.20;1.52;;;;;;;;;;5072887;28;20032;-49
2020/12/17 06:35:23;;;;;;;14.10;1.33;;;;;;;;;;5072924;28;20388;-47
2020/12/17 06:37:52;;;;;;;8.57;0.98;;;;;;;;;;5072627;28;20472;-47
2020/12/17 06:40:26;;;;;;;7.85;1.38;;;;;;;;;;5072381;28;20028;-46
2020/12/17 06:42:53;;;;;;;10.38;1.80;;;;;;;;;;5072526;28;20021;-47
2020/12/17 06:45:29;;;;;;;9.63;1.42;;;;;;;;;;5072653;28;20108;-49
2020/12/17 06:47:56;;;;;;;7.47;1.02;;;;;;;;;;5072040;28;20030;-48
2020/12/17 06:50:24;;;;;;;9.98;1.20;;;;;;;;;;5072527;28;20094;-47
2020/12/17 06:53:20;;;;;;;25.17;2.38;;;;;;;;;;5072152;28;20017;-45
2020/12/17 06:55:50;;;;;;;6.10;0.82;;;;;;;;;;5051438;28;20045;-47
2020/12/17 06:58:18;;;;;;;14.68;1.38;;;;;;;;;;5071740;28;20087;-45
2020/12/17 07:00:45;;;;;;;9.20;1.17;;;;;;;;;;5070771;28;20028;-48
2020/12/17 07:03:12;;;;;;;11.90;1.52;;;;;;;;;;5071958;28;20529;-49
2020/12/17 07:05:39;;;;;;;15.13;1.40;;;;;;;;;;5072615;28;20095;-46
2020/12/17 07:08:06;;;;;;;6.75;1.05;;;;;;;;;;5071697;28;20035;-46
2020/12/17 07:10:33;;;;;;;6.53;1.15;;;;;;;;;;5071516;28;20029;-45
2020/12/17 07:13:00;;;;;;;15.73;2.35;;;;;;;;;;5071557;28;20029;-50
2020/12/17 07:15:27;;;;;;;10.82;1.55;;;;;;;;;;5071444;28;20048;-46
2020/12/17 07:17:54;;;;;;;9.90;1.20;;;;;;;;;;5071620;28;20531;-47
2020/12/17 07:20:30;;;;;;;4.35;1.23;;;;;;;;;;5071727;28;20487;-47
2020/12/17 07:22:58;;;;;;;10.30;1.58;;;;;;;;;;5071485;28;20020;-46
2020/12/17 07:25:37;;;;;;;12.73;1.33;;;;;;;;;;5071933;28;20024;-44
2020/12/17 07:28:05;;;;;;;10.68;1.35;;;;;;;;;;5071606;28;20021;-45
2020/12/17 07:30:32;;;;;;;15.48;1.55;;;;;;;;;;5071637;28;20059;-46
2020/12/17 07:32:58;;;;;;;14.07;1.95;;;;;;;;;;5053739;28;20028;-45
2020/12/17 07:35:27;;;;;;;7.40;0.85;;;;;;;;;;5071637;28;20103;-45
2020/12/17 07:38:01;;;;;;;8.73;1.42;;;;;;;;;;5071895;28;20105;-45
2020/12/17 07:40:34;;;;;;;11.15;1.45;;;;;;;;;;5070602;28;20472;-44
2020/12/17 07:43:09;;;;;;;4.53;1.30;;;;;;;;;;5071835;28;20040;-45
2020/12/17 07:45:55;;;;;;;7.50;1.50;;;;;;;;;;5071221;28;20013;-46
2020/12/17 07:48:41;;;;;;;4.25;0.93;;;;;;;;;;5071575;28;20050;-45
2020/12/17 07:51:14;;;;;;;12.98;1.55;;;;;;;;;;5070878;28;20070;-46
2020/12/17 07:53:48;;;;;;;8.68;1.33;;;;;;;;;;5071724;28;20024;-45
2020/12/17 07:56:15;;;;;;;9.52;1.25;;;;;;;;;;5070942;28;20040;-46
2020/12/17 07:58:42;;;;;;;8.20;1.00;;;;;;;;;;5071434;28;20024;-46
2020/12/17 08:01:10;;;;;;;9.57;1.00;;;;;;;;;;5070135;28;20484;-45
2020/12/17 08:03:47;;;;;;;11.13;1.02;;;;;;;;;;5071214;28;20532;-46
2020/12/17 08:06:15;;;;;;;5.45;0.70;;;;;;;;;;5070577;28;20118;-46
2020/12/17 08:08:43;;;;;;;5.95;0.93;;;;;;;;;;5071510;28;20123;-46
2020/12/17 08:11:10;;;;;;;8.23;1.27;;;;;;;;;;5070108;28;20020;-46
2020/12/17 08:13:38;;;;;;;5.05;1.17;;;;;;;;;;5068751;28;20422;-45
2020/12/17 08:16:05;;;;;;;11.32;1.35;;;;;;;;;;5050533;28;20044;-45
2020/12/17 08:18:34;;;;;;;10.93;1.42;;;;;;;;;;5050889;28;20017;-45
2020/12/17 08:21:11;;;;;;;11.15;0.90;;;;;;;;;;5050319;28;20033;-46
2020/12/17 08:23:39;;;;;;;17.08;1.73;;;;;;;;;;5051270;28;20025;-45
2020/12/17 08:26:14;;;;;;;8.73;1.15;;;;;;;;;;5050715;28;20483;-52
2020/12/17 08:28:41;;;;;;;9.93;1.20;;;;;;;;;;5050852;28;20036;-51
2020/12/17 08:31:17;;;;;;;10.10;1.10;;;;;;;;;;5050001;28;20028;-49
2020/12/17 08:33:49;;;;;;;8.25;1.00;;;;;;;;;;5051308;28;20029;-46
2020/12/17 08:36:21;;;;;;;8.13;1.83;;;;;;;;;;5050675;28;20029;-46
2020/12/17 08:38:47;;;;;;;;;;;;;;;;;;5051169;28;20025;-47
2020/12/17 08:41:16;;;;;;;17.98;1.70;;;;;;;;;;5049480;28;20386;-46
2020/12/17 08:43:47;;;;;;;18.02;2.38;;;;;;;;;;5051150;28;20380;-47
2020/12/17 08:46:15;;;;;;;15.17;1.57;;;;;;;;;;5050523;28;20443;-50
2020/12/17 08:48:43;;;;;;;10.48;1.20;;;;;;;;;;5050851;28;20022;-48
2020/12/17 08:51:14;;;;;;;14.18;1.40;;;;;;;;;;5049605;28;20496;-45
2020/12/17 08:53:42;;;;;;;10.48;1.63;;;;;;;;;;5051076;28;20017;-47
2020/12/17 08:56:16;;;;;;;20.85;1.90;;;;;;;;;;5050737;28;20029;-48
2020/12/17 08:58:54;;;;;;;13.00;1.30;;;;;;;;;;5050576;28;20025;-49
2020/12/17 09:01:29;;;;;;;9.45;1.10;;;;;;;;;;5050313;28;20029;-47
2020/12/17 09:03:57;;;;;;;9.65;1.23;;;;;;;;;;5050571;28;20031;-47
2020/12/17 09:06:25;;;;;;;11.25;1.48;;;;;;;;;;5050896;28;20017;-46
2020/12/17 09:08:52;;;;;;;8.48;1.40;;;;;;;;;;5050180;28;20060;-50
2020/12/17 09:11:29;;;;;;;15.45;1.55;;;;;;;;;;5049739;28;20027;-49
2020/12/17 09:14:00;;;;;;;10.85;2.28;;;;;;;;;;5050250;28;20049;-48
2020/12/17 09:16:28;;;;;;;7.93;1.38;;;;;;;;;;5050315;28;20029;-47
2020/12/17 09:18:56;;;;;;;11.43;1.52;;;;;;;;;;5050356;28;20017;-46
2020/12/17 09:21:23;;;;;;;13.55;1.67;;;;;;;;;;5050227;28;20482;-48
2020/12/17 09:23:54;;;;;;;17.58;2.28;;;;;;;;;;5050578;28;20113;-49
2020/12/17 09:26:21;;;;;;;23.88;2.20;;;;;;;;;;5054339;28;20439;-46
2020/12/17 09:29:06;;;;;;;17.08;3.03;;;;;;;;;;5053614;28;20385;-47
2020/12/17 09:31:35;;;;;;;39.05;3.90;;;;;;;;;;5053797;28;20124;-46
2020/12/17 09:34:06;;;;;;;16.23;2.97;;;;;;;;;;5053612;28;20017;-45
2020/12/17 09:36:33;;;;;;;36.22;2.35;;;;;;;;;;5054017;28;20033;-46
2020/12/17 09:39:11;;;;;;;25.50;2.33;;;;;;;;;;5053627;28;20021;-45
2020/12/17 09:41:38;;;;;;;26.70;2.67;;;;;;;;;;5053904;28;20050;-47
2020/12/17 09:44:06;;;;;;;12.90;2.15;;;;;;;;;;5053523;28;20100;-46
2020/12/17 09:46:42;;;;;;;24.73;2.67;;;;;;;;;;5053919;28;20480;-47
2020/12/17 09:49:09;;;;;;;25.77;2.20;;;;;;;;;;5053546;28;20021;-52
2020/12/17 09:51:36;;;;;;;21.88;3.25;;;;;;;;;;5053623;28;20059;-49
2020/12/17 09:54:03;;;;;;;13.20;2.05;;;;;;;;;;5052833;28;20025;-47
2020/12/17 09:56:30;;;;;;;19.40;2.53;;;;;;;;;;5053095;28;20063;-51
2020/12/17 09:58:57;;;;;;;17.55;2.60;;;;;;;;;;5053881;28;20485;-49
2020/12/17 10:01:25;;;;;;;19.83;2.35;;;;;;;;;;5053090;28;20416;-51
2020/12/17 10:03:51;;;;;;;16.70;1.88;;;;;;;;;;5052780;28;20017;-47
2020/12/17 10:06:19;;;;;;;22.70;1.50;;;;;;;;;;5053146;28;20017;-51
2020/12/17 10:08:46;;;;;;;26.50;2.70;;;;;;;;;;5052872;28;20025;-48
2020/12/17 10:11:13;;;;;;;19.10;2.50;;;;;;;;;;5052805;28;20167;-49
2020/12/17 10:13:40;;;;;;;16.55;2.33;;;;;;;;;;5052593;28;20120;-47
2020/12/17 10:16:07;;;;;;;26.13;2.22;;;;;;;;;;5033212;28;20041;-51
2020/12/17 10:18:34;;;;;;;25.45;2.97;;;;;;;;;;5035318;28;20164;-47
2020/12/17 10:21:01;;;;;;;30.88;3.25;;;;;;;;;;5032157;28;20039;-47
2020/12/17 10:23:28;;;;;;;27.52;3.20;;;;;;;;;;5032306;28;20048;-48
2020/12/17 10:25:55;;;;;;;24.27;3.25;;;;;;;;;;5033597;28;20032;-48
2020/12/17 10:28:21;;;;;;;41.03;3.90;;;;;;;;;;5021155;28;20025;-51
2020/12/17 10:30:48;;;;;;;42.80;4.40;;;;;;;;;;5023618;28;20041;-52
2020/12/17 10:33:15;;;;;;;38.65;3.08;;;;;;;;;;5031776;28;20064;-49
2020/12/17 10:35:42;;;;;;;62.97;4.60;;;;;;;;;;5032137;28;20041;-48
2020/12/17 10:38:09;;;;;;;36.17;3.75;;;;;;;;;;5032885;28;20026;-49
2020/12/17 10:40:38;;;;;;;34.28;3.25;;;;;;;;;;5032367;28;20009;-48
2020/12/17 10:43:05;;;;;;;42.42;4.57;;;;;;;;;;5032210;28;20395;-51
2020/12/17 10:45:31;;;;;;;59.38;4.40;;;;;;;;;;5034285;28;20102;-51
2020/12/17 10:47:58;;;;;;;95.00;8.27;;;;;;;;;;5038058;28;20025;-49
2020/12/17 10:50:26;;;;;;;58.33;6.28;;;;;;;;;;5032819;28;20029;-53
2020/12/17 10:52:53;;;;;;;61.25;5.15;;;;;;;;;;5031420;28;20018;-53
2020/12/17 10:55:20;;;;;;;66.90;6.93;;;;;;;;;;5046092;28;20032;-50
2020/12/17 10:57:46;;;;;;;57.58;7.07;;;;;;;;;;5044897;28;20025;-49
2020/12/17 11:00:13;;;;;;;87.80;7.93;;;;;;;;;;5051904;28;20072;-50
2020/12/17 11:02:40;;;;;;;58.60;5.63;;;;;;;;;;5050810;28;20476;-53
2020/12/17 11:05:07;;;;;;;59.65;5.15;;;;;;;;;;5051844;28;20143;-53
2020/12/17 11:07:35;;;;;;;62.17;6.40;;;;;;;;;;5047578;28;20361;-53
2020/12/17 11:10:02;;;;;;;60.72;5.95;;;;;;;;;;5051933;28;20372;-49
2020/12/17 11:12:29;;;;;;;88.30;6.28;;;;;;;;;;5050848;28;20040;-54
2020/12/17 11:14:56;;;;;;;68.97;5.35;;;;;;;;;;5042826;28;20489;-51
2020/12/17 11:17:23;;;;;;;89.65;7.10;;;;;;;;;;5042792;28;20025;-50
2020/12/17 11:19:50;;;;;;;95.03;7.38;;;;;;;;;;5050064;28;20028;-50
2020/12/17 11:22:17;;;;;;;110.65;7.50;;;;;;;;;;5030259;28;20018;-58
2020/12/17 11:24:44;;;;;;;68.90;6.03;;;;;;;;;;5027543;28;20452;-50
2020/12/17 11:27:11;;;;;;;123.63;8.27;;;;;;;;;;5020769;28;20426;-59
2020/12/17 11:29:38;;;;;;;123.32;8.05;;;;;;;;;;5051124;28;20976;-55
2020/12/17 11:32:05;;;;;;;124.07;9.35;;;;;;;;;;5042926;28;20021;-59
2020/12/17 11:34:33;;;;;;;122.40;9.73;;;;;;;;;;5029816;28;20036;-49
2020/12/17 11:37:00;;;;;;;115.30;7.93;;;;;;;;;;5034172;28;20048;-48
2020/12/17 11:39:27;;;;;;;103.68;8.27;;;;;;;;;;5046932;28;20492;-48
2020/12/17 11:41:54;;;;;;;138.02;13.15;;;;;;;;;;5050351;28;20028;-52
2020/12/17 11:44:23;;;;;;;181.20;14.02;;;;;;;;;;5050536;28;20031;-52
2020/12/17 11:46:53;;;;;;;139.18;10.32;;;;;;;;;;5037541;28;20052;-53
2020/12/17 11:49:19;;;;;;;124.53;9.43;;;;;;;;;;5042744;28;20116;-55
2020/12/17 11:51:50;;;;;;;135.90;10.48;;;;;;;;;;5046427;28;20033;-56
2020/12/17 11:54:17;;;;;;;149.40;10.88;;;;;;;;;;5050620;28;20036;-51
2020/12/17 11:56:49;;;;;;;98.45;8.48;;;;;;;;;;5033281;28;20046;-53
2020/12/17 11:59:17;;;;;;;105.70;8.73;;;;;;;;;;5033990;28;20040;-49
2020/12/17 12:01:47;;;;;;;102.75;9.98;;;;;;;;;;5045665;28;20037;-48
2020/12/17 12:04:13;;;;;;;95.47;8.65;;;;;;;;;;5031653;28;20516;-46
2020/12/17 12:06:40;;;;;;;89.95;7.55;;;;;;;;;;5030902;28;20032;-47
2020/12/17 12:09:08;;;;;;;72.07;7.03;;;;;;;;;;5030426;28;20542;-49
2020/12/17 12:11:35;;;;;;;79.45;6.90;;;;;;;;;;5033900;28;20115;-50
2020/12/17 12:14:02;;;;;;;65.65;6.97;;;;;;;;;;5034919;28;20045;-53
2020/12/17 12:16:29;;;;;;;56.75;6.50;;;;;;;;;;5045776;28;20048;-54
2020/12/17 12:18:56;;;;;;;68.03;6.88;;;;;;;;;;5048726;28;20029;-45
2020/12/17 12:21:23;;;;;;;57.78;6.13;;;;;;;;;;5048233;28;20044;-55
2020/12/17 12:23:50;;;;;;;51.72;5.93;;;;;;;;;;5070551;28;20168;-55
2020/12/17 12:26:17;;;;;;;90.20;7.82;;;;;;;;;;5054443;28;20013;-52
2020/12/17 12:28:44;;;;;;;83.28;7.07;;;;;;;;;;5050013;28;20037;-50
2020/12/17 12:31:14;;;;;;;83.30;9.00;;;;;;;;;;5050561;28;20388;-49
2020/12/17 12:33:41;;;;;;;102.93;8.65;;;;;;;;;;5049905;28;20490;-49
2020/12/17 12:36:09;;;;;;;71.32;7.28;;;;;;;;;;5045307;28;20055;-50
2020/12/17 12:38:36;;;;;;;85.80;8.00;;;;;;;;;;5046182;28;20021;-49
2020/12/17 12:41:03;;;;;;;53.38;7.05;;;;;;;;;;5045775;28;20144;-48
2020/12/17 12:43:30;;;;;;;65.25;6.95;;;;;;;;;;5046852;28;20543;-51
2020/12/17 12:45:57;;;;;;;63.67;7.82;;;;;;;;;;5047733;28;20203;-51
2020/12/17 12:48:25;;;;;;;88.53;7.93;;;;;;;;;;5041337;28;20024;-54
2020/12/17 12:50:52;;;;;;;67.38;8.45;;;;;;;;;;5033854;28;20500;-52
2020/12/17 12:53:20;;;;;;;81.80;8.18;;;;;;;;;;5029460;28;20033;-51
2020/12/17 12:55:50;;;;;;;91.80;8.90;;;;;;;;;;5030288;28;20041;-55
2020/12/17 12:58:17;;;;;;;91.95;9.85;;;;;;;;;;5047376;28;20017;-52
2020/12/17 13:00:44;;;;;;;95.07;8.95;;;;;;;;;;5054069;28;20033;-52
2020/12/17 13:03:11;;;;;;;122.90;9.25;;;;;;;;;;5053273;28;20498;-51
2020/12/17 13:05:38;;;;;;;103.50;9.40;;;;;;;;;;5050201;28;20021;-49
2020/12/17 13:08:05;;;;;;;92.38;9.77;;;;;;;;;;5053394;28;20079;-53
2020/12/17 13:10:35;;;;;;;94.18;9.20;;;;;;;;;;5049972;28;20025;-45
2020/12/17 13:13:05;;;;;;;93.28;8.68;;;;;;;;;;5052646;28;20052;-46
2020/12/17 13:15:32;;;;;;;67.93;7.45;;;;;;;;;;5057247;28;20052;-51
2020/12/17 13:17:59;;;;;;;90.70;8.35;;;;;;;;;;5056985;28;20028;-48
2020/12/17 13:20:29;;;;;;;69.50;5.95;;;;;;;;;;5042954;28;20502;-47
2020/12/17 13:22:56;;;;;;;75.85;6.43;;;;;;;;;;5070605;28;20066;-48
2020/12/17 13:25:24;;;;;;;76.85;7.50;;;;;;;;;;5073430;28;20025;-52
2020/12/17 13:27:51;;;;;;;76.95;8.38;;;;;;;;;;5060652;28;20543;-50
2020/12/17 13:30:18;;;;;;;79.80;8.05;;;;;;;;;;5063714;28;20078;-51
2020/12/17 13:32:45;;;;;;;63.00;7.35;;;;;;;;;;5067613;28;20132;-54
2020/12/17 13:35:12;;;;;;;74.70;7.70;;;;;;;;;;5069796;28;20044;-45
2020/12/17 13:37:39;;;;;;;76.30;7.85;;;;;;;;;;5058314;28;20033;-54
2020/12/17 13:40:06;;;;;;;92.07;9.25;;;;;;;;;;5060765;28;20464;-50
2020/12/17 13:42:33;;;;;;;73.78;7.30;;;;;;;;;;5064523;28;20111;-48
2020/12/17 13:45:00;;;;;;;60.67;7.25;;;;;;;;;;5050927;28;20569;-46
2020/12/17 13:47:28;;;;;;;83.95;7.68;;;;;;;;;;5053712;28;20496;-49
2020/12/17 13:49:55;;;;;;;90.57;9.05;;;;;;;;;;5053823;28;20025;-52
2020/12/17 13:52:22;;;;;;;54.22;7.28;;;;;;;;;;5052575;28;20867;-52
2020/12/17 13:54:49;;;;;;;63.03;7.20;;;;;;;;;;5063463;28;20028;-52
2020/12/17 13:57:15;;;;;;;80.45;7.80;;;;;;;;;;5072860;28;20025;-49
2020/12/17 13:59:42;;;;;;;77.95;6.75;;;;;;;;;;5073215;28;20032;-51
2020/12/17 14:02:10;;;;;;;69.90;7.20;;;;;;;;;;5065784;28;20104;-45
2020/12/17 14:04:37;;;;;;;58.75;6.72;;;;;;;;;;5066343;28;20028;-55
2020/12/17 14:07:04;;;;;;;73.50;8.05;;;;;;;;;;5073079;28;20380;-53
2020/12/17 14:09:31;;;;;;;83.05;7.53;;;;;;;;;;5071708;28;20029;-50
2020/12/17 14:11:58;;;;;;;75.72;7.30;;;;;;;;;;5058972;28;20381;-49
2020/12/17 14:14:25;;;;;;;57.60;7.30;;;;;;;;;;5059749;28;20040;-50
2020/12/17 14:16:52;;;;;;;69.00;7.75;;;;;;;;;;5071088;28;20081;-48
2020/12/17 14:19:19;;;;;;;76.70;7.82;;;;;;;;;;5072004;28;20024;-48
2020/12/17 14:21:46;;;;;;;65.43;7.72;;;;;;;;;;5072777;28;20472;-48
2020/12/17 14:24:13;;;;;;;77.82;7.63;;;;;;;;;;5066325;28;20166;-50
2020/12/17 14:26:40;;;;;;;78.25;8.02;;;;;;;;;;5060195;28;20028;-50
2020/12/17 14:29:07;;;;;;;67.25;8.30;;;;;;;;;;5054165;28;20136;-53
2020/12/17 14:31:34;;;;;;;64.97;8.40;;;;;;;;;;5067301;28;20031;-49
2020/12/17 14:34:01;;;;;;;62.83;7.07;;;;;;;;;;5056975;28;20017;-48
2020/12/17 14:36:28;;;;;;;71.40;7.60;;;;;;;;;;5069353;28;20567;-49